createdAt,value
2023-02-24T00:00:38.562Z,18.51
2023-02-24T00:03:11.541Z,18.20
2023-02-24T00:05:44.383Z,18.10
2023-02-24T00:08:13.965Z,18.67
2023-02-24T00:10:41.995Z,18.32
2023-02-24T00:13:12.009Z,18.71
2023-02-24T00:15:40.021Z,18.28
2023-02-24T00:18:08.622Z,18.33
2023-02-24T00:20:37.434Z,18.70
2023-02-24T00:23:05.490Z,18.41
2023-02-24T00:25:34.815Z,18.51
2023-02-24T00:28:02.763Z,18.83
2023-02-24T00:30:33.046Z,18.38
2023-02-24T00:33:03.496Z,18.61
2023-02-24T00:35:32.219Z,18.65
2023-02-24T00:38:00.864Z,18.40
2023-02-24T00:40:30.806Z,18.54
2023-02-24T00:43:02.122Z,18.22
2023-02-24T00:45:30.997Z,18.73
2023-02-24T00:47:59.094Z,18.29
2023-02-24T00:50:27.351Z,18.55
2023-02-24T00:52:55.272Z,18.69
2023-02-24T00:55:23.364Z,18.72
2023-02-24T00:57:51.929Z,18.23
2023-02-24T01:00:23.475Z,18.41
2023-02-24T01:02:52.314Z,18.68
2023-02-24T01:05:21.201Z,18.55
2023-02-24T01:07:49.184Z,18.54
2023-02-24T01:10:18.345Z,18.48
2023-02-24T01:12:51.062Z,18.34
2023-02-24T01:15:23.147Z,18.35
2023-02-24T01:17:51.276Z,18.36
2023-02-24T01:20:19.684Z,18.54
2023-02-24T01:22:49.602Z,18.32
2023-02-24T01:25:19.979Z,18.33
2023-02-24T01:27:48.064Z,18.47
2023-02-24T01:30:17.598Z,18.64
2023-02-24T01:32:48.206Z,18.73
2023-02-24T01:35:17.700Z,18.77
2023-02-24T01:37:45.917Z,18.70
2023-02-24T01:40:20.959Z,18.38
2023-02-24T01:42:50.581Z,18.32
2023-02-24T01:45:22.831Z,18.55
2023-02-24T01:47:54.091Z,18.38
2023-02-24T01:50:26.138Z,18.42
2023-02-24T01:52:58.865Z,18.36
2023-02-24T01:55:32.096Z,18.71
2023-02-24T01:58:04.998Z,18.45
2023-02-24T02:00:37.837Z,18.35
2023-02-24T02:03:20.161Z,18.63
2023-02-24T02:05:49.228Z,18.70
2023-02-24T02:08:19.570Z,18.30
2023-02-24T02:10:48.882Z,18.70
2023-02-24T02:13:21.193Z,18.31
2023-02-24T02:16:04.017Z,18.72
2023-02-24T02:18:43.343Z,18.41
2023-02-24T02:21:36.343Z,18.20
2023-02-24T02:24:21.038Z,18.25
2023-02-24T02:27:23.349Z,18.61
2023-02-24T02:30:24.508Z,18.47
2023-02-24T02:33:27.547Z,18.31
2023-02-24T02:36:07.332Z,18.47
2023-02-24T02:38:43.778Z,18.49
2023-02-24T02:41:21.874Z,18.35
2023-02-24T02:43:54.626Z,18.28
2023-02-24T02:46:34.933Z,18.86
2023-02-24T02:49:14.924Z,18.33
2023-02-24T02:51:51.711Z,18.61
2023-02-24T02:54:27.140Z,18.84
2023-02-24T02:57:01.411Z,18.49
2023-02-24T02:59:32.324Z,18.83
2023-02-24T03:02:11.761Z,18.77
2023-02-24T03:04:43.482Z,18.40
2023-02-24T03:07:17.786Z,18.80
2023-02-24T03:09:51.802Z,18.83
2023-02-24T03:12:22.933Z,18.80
2023-02-24T03:14:59.138Z,18.74
2023-02-24T03:17:31.757Z,18.60
2023-02-24T03:20:15.519Z,18.79
2023-02-24T03:22:50.031Z,18.94
2023-02-24T03:25:24.112Z,18.61
2023-02-24T03:27:57.550Z,18.92
2023-02-24T03:30:33.364Z,18.86
2023-02-24T03:33:06.389Z,18.47
2023-02-24T03:35:39.895Z,18.92
2023-02-24T03:38:10.583Z,18.60
2023-02-24T03:40:39.403Z,18.81
2023-02-24T03:43:16.956Z,18.72
2023-02-24T03:45:46.650Z,18.64
2023-02-24T03:48:14.934Z,18.95
2023-02-24T03:50:46.785Z,19.04
2023-02-24T03:53:49.233Z,18.85
2023-02-24T03:56:29.787Z,18.97
2023-02-24T03:59:13.064Z,18.58
2023-02-24T04:01:49.803Z,18.46
2023-02-24T04:04:27.471Z,18.60
2023-02-24T04:07:10.532Z,18.57
2023-02-24T04:09:44.185Z,18.50
2023-02-24T04:12:22.455Z,18.52
2023-02-24T04:15:15.468Z,18.92
2023-02-24T04:17:49.433Z,18.93
2023-02-24T04:20:20.616Z,18.90
2023-02-24T04:22:59.888Z,18.96
2023-02-24T04:25:31.113Z,18.79
2023-02-24T04:28:01.951Z,18.51
2023-02-24T04:30:35.104Z,18.74
2023-02-24T04:33:03.851Z,18.73
2023-02-24T04:35:33.104Z,18.83
2023-02-24T04:38:02.096Z,18.96
2023-02-24T04:40:31.778Z,18.46
2023-02-24T04:43:00.033Z,18.62
2023-02-24T04:45:31.121Z,18.66
2023-02-24T04:48:02.216Z,19.06
2023-02-24T04:50:32.979Z,18.65
2023-02-24T04:53:03.089Z,18.97
2023-02-24T04:55:34.073Z,19.05
2023-02-24T04:58:03.001Z,18.61
2023-02-24T05:00:35.843Z,18.77
2023-02-24T05:03:05.945Z,19.02
2023-02-24T05:05:34.301Z,18.66
2023-02-24T05:08:03.969Z,18.91
2023-02-24T05:10:38.907Z,19.31
2023-02-24T05:13:09.138Z,19.06
2023-02-24T05:15:41.168Z,19.14
2023-02-24T05:18:14.072Z,19.41
2023-02-24T05:21:01.951Z,18.99
2023-02-24T05:23:33.398Z,19.46
2023-02-24T05:26:08.357Z,19.40
2023-02-24T05:28:37.066Z,19.35
2023-02-24T05:31:08.420Z,19.52
2023-02-24T05:33:37.863Z,19.24
2023-02-24T05:36:08.611Z,19.39
2023-02-24T05:38:38.222Z,19.29
2023-02-24T05:41:09.119Z,19.39
2023-02-24T05:43:39.770Z,19.60
2023-02-24T05:46:07.727Z,19.24
2023-02-24T05:48:36.083Z,19.16
2023-02-24T05:51:08.025Z,19.25
2023-02-24T05:53:36.570Z,19.19
2023-02-24T05:56:05.968Z,19.22
2023-02-24T05:58:36.493Z,19.10
2023-02-24T06:01:16.216Z,18.97
2023-02-24T06:03:47.958Z,19.04
2023-02-24T06:06:16.765Z,19.14
2023-02-24T06:08:50.135Z,19.15
2023-02-24T06:11:20.833Z,19.34
2023-02-24T06:13:50.650Z,19.16
2023-02-24T06:16:19.708Z,18.88
2023-02-24T06:18:50.511Z,19.21
2023-02-24T06:21:19.363Z,19.22
2023-02-24T06:23:47.448Z,19.15
2023-02-24T06:26:19.477Z,19.20
2023-02-24T06:28:49.994Z,18.80
2023-02-24T06:31:21.544Z,18.67
2023-02-24T06:33:50.110Z,18.65
2023-02-24T06:36:18.107Z,18.61
2023-02-24T06:38:46.220Z,18.76
2023-02-24T06:41:14.273Z,18.62
2023-02-24T06:43:44.144Z,18.88
2023-02-24T06:46:16.757Z,18.66
2023-02-24T06:48:48.196Z,18.80
2023-02-24T06:51:17.657Z,18.73
2023-02-24T06:53:45.939Z,18.98
2023-02-24T06:56:19.892Z,19.03
2023-02-24T06:58:52.106Z,18.69
2023-02-24T07:01:22.304Z,18.88
2023-02-24T07:04:17.741Z,18.57
2023-02-24T07:06:49.489Z,19.10
2023-02-24T07:09:19.673Z,19.07
2023-02-24T07:11:52.215Z,18.88
2023-02-24T07:14:21.866Z,18.85
2023-02-24T07:16:54.622Z,18.52
2023-02-24T07:19:27.169Z,18.58
2023-02-24T07:22:00.403Z,18.62
2023-02-24T07:24:33.166Z,18.60
2023-02-24T07:27:03.194Z,18.37
2023-02-24T07:29:33.466Z,18.57
2023-02-24T07:32:03.767Z,18.31
2023-02-24T07:34:34.922Z,18.64
2023-02-24T07:37:08.128Z,18.40
2023-02-24T07:39:37.584Z,18.34
2023-02-24T07:42:06.317Z,18.55
2023-02-24T07:44:46.765Z,18.58
2023-02-24T07:47:16.006Z,18.57
2023-02-24T07:49:45.860Z,19.86
2023-02-24T07:52:13.874Z,20.67
2023-02-24T07:54:41.969Z,21.90
2023-02-24T07:57:13.966Z,22.39
2023-02-24T07:59:45.511Z,23.12
2023-02-24T08:02:14.182Z,23.22
2023-02-24T08:04:48.243Z,22.94
2023-02-24T08:07:17.844Z,23.38
2023-02-24T08:10:08.668Z,23.36
2023-02-24T08:12:42.640Z,23.21
2023-02-24T08:15:18.140Z,22.89
2023-02-24T08:17:47.578Z,23.01
2023-02-24T08:20:29.919Z,23.47
2023-02-24T08:22:59.534Z,23.81
2023-02-24T08:25:35.787Z,23.50
2023-02-24T08:28:09.454Z,23.66
2023-02-24T08:30:39.985Z,23.44
2023-02-24T08:33:11.204Z,22.94
2023-02-24T08:35:44.781Z,22.46
2023-02-24T08:38:17.319Z,22.25
2023-02-24T08:40:52.108Z,22.01
2023-02-24T08:43:32.784Z,21.83
2023-02-24T08:46:05.582Z,21.45
2023-02-24T08:48:42.366Z,21.53
2023-02-24T08:51:17.705Z,21.26
2023-02-24T08:53:47.651Z,20.59
2023-02-24T08:56:24.267Z,20.82
2023-02-24T08:58:57.162Z,20.50
2023-02-24T09:01:34.378Z,20.25
2023-02-24T09:04:04.650Z,20.23
2023-02-24T09:06:39.703Z,19.69
2023-02-24T09:09:18.658Z,19.77
2023-02-24T09:11:48.132Z,19.40
2023-02-24T09:14:26.446Z,19.31
2023-02-24T09:17:07.175Z,19.16
2023-02-24T09:19:58.340Z,19.50
2023-02-24T09:22:40.998Z,19.40
2023-02-24T09:25:29.180Z,19.32
2023-02-24T09:28:08.394Z,19.15
2023-02-24T09:30:39.245Z,18.82
2023-02-24T09:33:18.639Z,19.03
2023-02-24T09:36:09.928Z,18.58
2023-02-24T09:38:57.542Z,18.69
2023-02-24T09:41:53.477Z,19.65
2023-02-24T09:44:27.130Z,19.97
2023-02-24T09:47:08.892Z,20.37
2023-02-24T09:49:50.751Z,19.97
2023-02-24T09:52:20.123Z,20.39
2023-02-24T09:55:10.820Z,19.80
2023-02-24T09:58:11.982Z,20.03
2023-02-24T10:00:44.976Z,19.82
2023-02-24T10:03:41.609Z,19.72
2023-02-24T10:06:20.988Z,19.58
2023-02-24T10:08:59.137Z,19.39
2023-02-24T10:11:33.968Z,19.81
2023-02-24T10:14:07.046Z,20.72
2023-02-24T10:16:46.293Z,21.55
2023-02-24T10:19:26.762Z,22.01
2023-02-24T10:22:03.047Z,21.91
2023-02-24T10:24:38.198Z,21.48
2023-02-24T10:27:16.676Z,21.66
2023-02-24T10:30:05.812Z,21.48
2023-02-24T10:32:43.328Z,21.14
2023-02-24T10:35:16.716Z,20.77
2023-02-24T10:37:45.103Z,20.42
2023-02-24T10:40:24.893Z,20.17
2023-02-24T10:43:03.833Z,20.12
2023-02-24T10:45:45.140Z,20.23
2023-02-24T10:48:40.193Z,20.20
2023-02-24T10:51:20.186Z,19.84
2023-02-24T10:54:10.172Z,19.88
2023-02-24T10:56:44.617Z,19.50
2023-02-24T10:59:32.965Z,19.71
2023-02-24T11:02:24.748Z,19.35
2023-02-24T11:05:04.622Z,19.60
2023-02-24T11:07:45.275Z,19.44
2023-02-24T11:10:26.094Z,19.25
2023-02-24T11:13:18.979Z,19.52
2023-02-24T11:16:07.431Z,19.42
2023-02-24T11:18:38.821Z,18.97
2023-02-24T11:21:09.975Z,19.49
2023-02-24T11:23:43.165Z,19.28
2023-02-24T11:26:17.712Z,19.31
2023-02-24T11:28:57.488Z,19.22
2023-02-24T11:31:42.134Z,19.11
2023-02-24T11:34:20.250Z,19.26
2023-02-24T11:36:54.556Z,19.01
2023-02-24T11:39:47.455Z,19.21
2023-02-24T11:42:20.496Z,18.98
2023-02-24T11:44:54.648Z,18.90
2023-02-24T11:47:30.116Z,19.15
2023-02-24T11:50:08.807Z,19.20
2023-02-24T11:52:42.153Z,19.29
2023-02-24T11:55:20.551Z,19.07
2023-02-24T11:57:54.808Z,19.36
2023-02-24T12:00:26.885Z,19.22
2023-02-24T12:03:02.251Z,19.24
2023-02-24T12:05:37.382Z,18.95
2023-02-24T12:08:13.514Z,19.28
2023-02-24T12:10:47.705Z,19.65
2023-02-24T12:13:22.661Z,19.43
2023-02-24T12:16:00.022Z,19.94
2023-02-24T12:18:33.317Z,21.00
2023-02-24T12:21:08.646Z,21.79
2023-02-24T12:23:39.445Z,21.89
2023-02-24T12:26:19.966Z,21.93
2023-02-24T12:29:16.786Z,21.46
2023-02-24T12:31:54.495Z,21.11
2023-02-24T12:34:36.219Z,20.88
2023-02-24T12:37:35.893Z,20.74
2023-02-24T12:40:16.388Z,20.04
2023-02-24T12:42:52.473Z,20.21
2023-02-24T12:45:28.874Z,20.13
2023-02-24T12:48:10.694Z,19.54
2023-02-24T12:50:49.868Z,19.46
2023-02-24T12:53:24.412Z,19.61
2023-02-24T12:56:13.579Z,19.65
2023-02-24T12:58:46.682Z,19.52
2023-02-24T13:01:23.456Z,19.40
2023-02-24T13:04:05.640Z,19.64
2023-02-24T13:06:48.213Z,19.37
2023-02-24T13:09:29.345Z,19.09
2023-02-24T13:12:03.016Z,19.21
2023-02-24T13:14:34.847Z,19.00
2023-02-24T13:17:20.213Z,19.29
2023-02-24T13:19:49.413Z,19.41
2023-02-24T13:22:27.552Z,19.15
2023-02-24T13:25:04.788Z,18.89
2023-02-24T13:27:36.104Z,18.70
2023-02-24T13:30:24.714Z,18.58
2023-02-24T13:33:02.985Z,18.65
2023-02-24T13:35:34.560Z,18.81
2023-02-24T13:38:24.938Z,18.87
2023-02-24T13:40:54.508Z,18.63
2023-02-24T13:43:26.921Z,18.50
2023-02-24T13:45:59.441Z,18.46
2023-02-24T13:48:54.957Z,18.92
2023-02-24T13:51:51.465Z,18.55
2023-02-24T13:54:46.853Z,18.45
2023-02-24T13:57:40.127Z,18.75
2023-02-24T14:00:16.239Z,19.09
2023-02-24T14:02:44.950Z,19.18
2023-02-24T14:05:20.542Z,18.96
2023-02-24T14:07:51.287Z,19.13
2023-02-24T14:10:23.194Z,19.19
2023-02-24T14:13:04.140Z,18.89
2023-02-24T14:15:33.131Z,18.76
2023-02-24T14:18:02.724Z,19.34
2023-02-24T14:20:33.260Z,19.13
2023-02-24T14:23:02.321Z,18.97
2023-02-24T14:25:35.502Z,19.50
2023-02-24T14:28:05.418Z,19.23
2023-02-24T14:30:36.583Z,19.43
2023-02-24T14:33:07.112Z,19.44
2023-02-24T14:35:37.702Z,20.36
2023-02-24T14:38:06.255Z,21.52
2023-02-24T14:40:34.626Z,21.76
2023-02-24T14:43:03.927Z,21.82
2023-02-24T14:45:32.071Z,22.23
2023-02-24T14:48:00.176Z,21.98
2023-02-24T14:50:31.270Z,22.11
2023-02-24T14:53:05.026Z,21.82
2023-02-24T14:55:37.192Z,21.62
2023-02-24T14:58:13.724Z,21.82
2023-02-24T15:00:47.457Z,21.65
2023-02-24T15:03:22.252Z,20.97
2023-02-24T15:05:53.562Z,21.08
2023-02-24T15:08:37.552Z,20.68
2023-02-24T15:11:19.567Z,20.34
2023-02-24T15:13:52.259Z,20.48
2023-02-24T15:16:25.004Z,20.39
2023-02-24T15:18:54.564Z,20.49
2023-02-24T15:21:24.968Z,21.12
2023-02-24T15:24:00.742Z,21.08
2023-02-24T15:26:31.479Z,20.59
2023-02-24T15:29:03.428Z,20.70
2023-02-24T15:31:31.818Z,20.59
2023-02-24T15:34:02.259Z,20.82
2023-02-24T15:36:33.987Z,20.69
2023-02-24T15:39:06.609Z,20.60
2023-02-24T15:41:43.354Z,20.47
2023-02-24T15:44:27.165Z,20.56
2023-02-24T15:46:56.025Z,20.43
2023-02-24T15:49:24.007Z,20.17
2023-02-24T15:51:53.857Z,19.92
2023-02-24T15:54:29.209Z,19.98
2023-02-24T15:56:59.239Z,20.24
2023-02-24T15:59:29.472Z,19.92
2023-02-24T16:01:57.694Z,19.85
2023-02-24T16:04:27.521Z,19.76
2023-02-24T16:06:58.696Z,19.74
2023-02-24T16:09:33.525Z,19.91
2023-02-24T16:12:03.474Z,19.66
2023-02-24T16:14:34.076Z,19.79
2023-02-24T16:17:03.728Z,19.63
2023-02-24T16:19:31.665Z,19.72
2023-02-24T16:21:59.606Z,19.71
2023-02-24T16:24:27.616Z,19.55
2023-02-24T16:26:55.604Z,19.66
2023-02-24T16:29:23.627Z,19.41
2023-02-24T16:31:53.183Z,19.47
2023-02-24T16:34:21.423Z,19.36
2023-02-24T16:36:49.504Z,19.11
2023-02-24T16:39:17.576Z,19.31
2023-02-24T16:41:45.506Z,19.51
2023-02-24T16:44:14.310Z,19.51
2023-02-24T16:46:45.652Z,19.26
2023-02-24T16:49:21.066Z,19.13
2023-02-24T16:51:49.101Z,19.07
2023-02-24T16:54:17.063Z,19.36
2023-02-24T16:56:45.334Z,19.11
2023-02-24T16:59:13.330Z,19.11
2023-02-24T17:01:41.541Z,19.15
2023-02-24T17:04:11.060Z,19.04
2023-02-24T17:06:40.494Z,19.18
2023-02-24T17:09:08.554Z,19.15
2023-02-24T17:11:36.456Z,19.00
2023-02-24T17:14:04.565Z,18.95
2023-02-24T17:16:32.718Z,18.73
2023-02-24T17:19:00.776Z,18.73
2023-02-24T17:21:28.820Z,19.27
2023-02-24T17:23:58.171Z,18.78
2023-02-24T17:26:26.392Z,19.18
2023-02-24T17:28:54.399Z,19.21
2023-02-24T17:31:22.969Z,18.92
2023-02-24T17:33:51.112Z,19.14
2023-02-24T17:36:19.526Z,18.85
2023-02-24T17:38:47.628Z,19.10
2023-02-24T17:41:17.013Z,18.91
2023-02-24T17:43:45.085Z,18.77
2023-02-24T17:46:13.124Z,19.04
2023-02-24T17:48:41.279Z,18.92
2023-02-24T17:51:13.566Z,18.77
2023-02-24T17:53:41.757Z,19.08
2023-02-24T17:56:10.550Z,19.05
2023-02-24T17:58:40.489Z,18.92
2023-02-24T18:01:08.910Z,18.75
2023-02-24T18:03:37.681Z,18.64
2023-02-24T18:06:08.651Z,18.78
2023-02-24T18:08:38.620Z,18.80
2023-02-24T18:11:08.305Z,18.97
2023-02-24T18:13:36.375Z,18.67
2023-02-24T18:16:09.640Z,18.58
2023-02-24T18:18:37.712Z,18.73
2023-02-24T18:21:07.027Z,18.95
2023-02-24T18:23:35.092Z,18.73
2023-02-24T18:26:03.849Z,18.87
2023-02-24T18:28:31.931Z,18.72
2023-02-24T18:31:00.651Z,18.65
2023-02-24T18:33:30.589Z,18.47
2023-02-24T18:35:59.813Z,18.78
2023-02-24T18:38:27.835Z,18.42
2023-02-24T18:40:59.869Z,18.37
2023-02-24T18:43:28.032Z,18.38
2023-02-24T18:45:59.993Z,18.59
2023-02-24T18:48:30.944Z,18.25
2023-02-24T18:50:59.574Z,18.62
2023-02-24T18:53:29.416Z,18.61
2023-02-24T18:56:01.756Z,18.59
2023-02-24T18:58:30.034Z,18.38
2023-02-24T19:00:58.075Z,18.42
2023-02-24T19:03:26.337Z,18.29
2023-02-24T19:05:55.734Z,18.57
2023-02-24T19:08:23.768Z,18.41
2023-02-24T19:10:51.753Z,18.40
2023-02-24T19:13:19.691Z,18.29
2023-02-24T19:15:48.390Z,18.22
2023-02-24T19:18:17.022Z,18.34
2023-02-24T19:20:45.256Z,18.51
2023-02-24T19:23:14.660Z,18.35
2023-02-24T19:25:42.748Z,18.32
2023-02-24T19:28:10.743Z,18.18
2023-02-24T19:30:39.987Z,18.20
2023-02-24T19:33:09.622Z,18.04
2023-02-24T19:35:41.669Z,18.25
2023-02-24T19:38:10.137Z,18.18
2023-02-24T19:40:39.438Z,18.28
2023-02-24T19:43:07.627Z,18.24
2023-02-24T19:45:35.704Z,18.31
2023-02-24T19:48:03.768Z,18.22
2023-02-24T19:50:31.815Z,18.00
2023-02-24T19:52:59.708Z,18.15
2023-02-24T19:55:27.813Z,17.99
2023-02-24T19:57:57.188Z,17.92
2023-02-24T20:00:25.237Z,18.28
2023-02-24T20:02:53.374Z,17.93
2023-02-24T20:05:21.345Z,17.77
2023-02-24T20:07:49.449Z,17.82
2023-02-24T20:10:18.988Z,17.87
2023-02-24T20:12:46.940Z,17.91
2023-02-24T20:15:16.528Z,18.00
2023-02-24T20:17:44.487Z,17.95
2023-02-24T20:20:13.442Z,17.77
2023-02-24T20:22:41.385Z,17.74
2023-02-24T20:25:10.711Z,17.67
2023-02-24T20:27:38.694Z,17.94
2023-02-24T20:30:07.519Z,17.70
2023-02-24T20:32:37.047Z,17.87
2023-02-24T20:35:05.350Z,17.91
2023-02-24T20:37:33.426Z,17.71
2023-02-24T20:40:01.385Z,17.69
2023-02-24T20:42:29.380Z,17.94
2023-02-24T20:44:57.531Z,17.77
2023-02-24T20:47:25.527Z,17.67
2023-02-24T20:49:55.045Z,17.85
2023-02-24T20:52:23.236Z,17.91
2023-02-24T20:54:51.392Z,17.62
2023-02-24T20:57:19.312Z,17.59
2023-02-24T21:00:01.546Z,17.78
2023-02-24T21:02:31.164Z,17.85
2023-02-24T21:05:00.714Z,17.77
2023-02-24T21:07:28.817Z,17.78
2023-02-24T21:09:56.876Z,17.64
2023-02-24T21:12:24.970Z,17.45
2023-02-24T21:14:53.119Z,17.60
2023-02-24T21:17:21.104Z,17.66
2023-02-24T21:19:49.818Z,17.70
2023-02-24T21:22:19.310Z,17.85
2023-02-24T21:24:47.356Z,17.47
2023-02-24T21:27:15.413Z,17.62
2023-02-24T21:29:43.660Z,17.41
2023-02-24T21:32:11.843Z,17.32
2023-02-24T21:34:39.891Z,17.39
2023-02-24T21:37:07.920Z,17.60
2023-02-24T21:39:37.358Z,17.64
2023-02-24T21:42:07.419Z,17.61
2023-02-24T21:44:35.384Z,17.36
2023-02-24T21:47:03.345Z,17.47
2023-02-24T21:49:31.403Z,17.48
2023-02-24T21:51:59.411Z,17.51
2023-02-24T21:54:27.802Z,17.31
2023-02-24T21:56:57.220Z,17.61
2023-02-24T21:59:25.227Z,17.46
2023-02-24T22:01:54.287Z,17.54
2023-02-24T22:04:23.328Z,17.44
2023-02-24T22:06:51.289Z,17.40
2023-02-24T22:09:20.234Z,17.31
2023-02-24T22:11:50.000Z,17.62
2023-02-24T22:14:19.402Z,17.42
2023-02-24T22:16:47.447Z,17.37
2023-02-24T22:19:15.696Z,17.65
2023-02-24T22:21:43.831Z,17.45
2023-02-24T22:24:14.505Z,17.43
2023-02-24T22:26:43.418Z,17.43
2023-02-24T22:29:11.646Z,17.26
2023-02-24T22:31:43.608Z,17.41
2023-02-24T22:34:13.131Z,17.49
2023-02-24T22:36:41.432Z,17.83
2023-02-24T22:39:09.625Z,17.68
2023-02-24T22:41:38.304Z,17.93
2023-02-24T22:44:07.444Z,17.81
2023-02-24T22:46:37.771Z,18.00
2023-02-24T22:49:07.700Z,17.93
2023-02-24T22:51:35.674Z,17.95
2023-02-24T22:54:03.806Z,17.87
2023-02-24T22:56:32.647Z,18.03
2023-02-24T22:59:00.775Z,17.90
2023-02-24T23:01:31.068Z,17.99
2023-02-24T23:04:01.828Z,17.78
2023-02-24T23:06:31.822Z,18.06
2023-02-24T23:09:01.592Z,18.04
2023-02-24T23:11:32.227Z,18.39
2023-02-24T23:14:02.101Z,18.44
2023-02-24T23:16:32.324Z,18.20
2023-02-24T23:19:04.228Z,18.18
2023-02-24T23:21:37.825Z,18.20
2023-02-24T23:24:07.209Z,18.26
2023-02-24T23:26:36.978Z,18.16
2023-02-24T23:29:06.534Z,18.45
2023-02-24T23:31:35.670Z,18.39
2023-02-24T23:34:07.171Z,18.51
2023-02-24T23:36:38.450Z,18.42
2023-02-24T23:39:07.797Z,18.43
2023-02-24T23:41:36.385Z,18.32
2023-02-24T23:44:04.589Z,18.38
2023-02-24T23:46:33.415Z,18.39
2023-02-24T23:49:01.969Z,18.62
2023-02-24T23:51:45.655Z,18.38
2023-02-24T23:54:17.434Z,18.22
2023-02-24T23:56:45.361Z,18.40
2023-02-24T23:59:13.325Z,18.25
